PWSweather.com
Personal Weather Stations
Station Observations

SkegnessGB

Lat: 53.147585, Lon: 0.345774

Elevation: 18

Station Type: Fine Offset WH3080

http://www.skegnessweather.info/

Latest ConditionsUpdated 6:20:00 AM GMT Wednesday, Apr 25, 2018
Currently Today's Max Today's Min Today's Average
Temperature 44.6°F7.0°C 46.4°F8.0°C 41.4°F5.2°C 43.6°F6.4°C
Dew Point 44.6°F7.0°C 46.4°F8.0°C 41.4°F5.2°C 43.6°F6.4°C
Winds 7.9 mph SW12.7 kmh SW 7.9 mph SW12.7 kmh SW - 4.5 mph 7.2 kmh
Wind Gusts 10.1 mph16.3 kmh 10.1 mph16.3 kmh - -
Humidity 100% 100% 100% 100%
Pressure 29.76 in1007.8 mb 29.76 in1007.8 mb 29.70 in1005.8 mb -
Hour Temp Dew Point Humidity Winds Wind Gusts Pressure Precip Precip Rate Daily Precip Total
06:20 AM 44.6°F7.0°C 44.6°F7.0°C 100% 7.9 mph SW12.7 kmh SW 10.1 mph16.3 kmh 29.76 in1007.8 mb 0.00 in0.0 mm 0.00 in0.0 mm 0.00 in0.0 mm
06:10 AM 43.9°F6.6°C 43.9°F6.6°C 100% 7.4 mph W11.9 kmh W 8.4 mph13.5 kmh 29.76 in1007.8 mb 0.00 in0.0 mm 0.00 in0.0 mm 0.00 in0.0 mm
06:00 AM 43.3°F6.3°C 43.3°F6.3°C 100% 6.9 mph WSW11.1 kmh WSW 7.6 mph12.2 kmh 29.76 in1007.8 mb 0.00 in0.0 mm 0.00 in0.0 mm 0.00 in0.0 mm
05:50 AM 43.0°F6.1°C 43.0°F6.1°C 100% 6.6 mph WSW10.6 kmh WSW 9.1 mph14.6 kmh 29.76 in1007.8 mb 0.00 in0.0 mm 0.00 in0.0 mm 0.00 in0.0 mm
05:40 AM 42.3°F5.7°C 42.3°F5.7°C 100% 5.7 mph SSW9.2 kmh SSW 8.4 mph13.5 kmh 29.75 in1007.5 mb 0.00 in0.0 mm 0.00 in0.0 mm 0.00 in0.0 mm
05:30 AM 41.7°F5.4°C 41.7°F5.4°C 100% 5.7 mph SSW9.2 kmh SSW 6.6 mph10.6 kmh 29.75 in1007.5 mb 0.00 in0.0 mm 0.00 in0.0 mm 0.00 in0.0 mm
05:20 AM 41.4°F5.2°C 41.4°F5.2°C 100% 4.5 mph S7.2 kmh S 4.9 mph7.9 kmh 29.75 in1007.5 mb 0.00 in0.0 mm 0.00 in0.0 mm 0.00 in0.0 mm
05:10 AM 41.4°F5.2°C 41.4°F5.2°C 100% 4.4 mph SW7.1 kmh SW 4.9 mph7.9 kmh 29.75 in1007.5 mb 0.00 in0.0 mm 0.00 in0.0 mm 0.00 in0.0 mm
05:00 AM 41.4°F5.2°C 41.4°F5.2°C 100% 4.5 mph SW7.2 kmh SW 4.9 mph7.9 kmh 29.75 in1007.5 mb 0.00 in0.0 mm 0.00 in0.0 mm 0.00 in0.0 mm
04:50 AM 41.4°F5.2°C 41.4°F5.2°C 100% 4.0 mph SW6.4 kmh SW 4.9 mph7.9 kmh 29.75 in1007.5 mb 0.00 in0.0 mm 0.00 in0.0 mm 0.00 in0.0 mm
04:40 AM 41.7°F5.4°C 41.7°F5.4°C 100% 4.0 mph SW6.4 kmh SW 4.2 mph6.8 kmh 29.75 in1007.5 mb 0.00 in0.0 mm 0.00 in0.0 mm 0.00 in0.0 mm
04:30 AM 42.1°F5.6°C 42.1°F5.6°C 100% 4.7 mph SW7.6 kmh SW 6.6 mph10.6 kmh 29.75 in1007.5 mb 0.00 in0.0 mm 0.00 in0.0 mm 0.00 in0.0 mm
04:20 AM 42.3°F5.7°C 42.3°F5.7°C 100% 4.9 mph SW7.9 kmh SW 5.9 mph9.5 kmh 29.74 in1007.1 mb 0.00 in0.0 mm 0.00 in0.0 mm 0.00 in0.0 mm
04:10 AM 42.4°F5.8°C 42.4°F5.8°C 100% 6.3 mph SW10.1 kmh SW 7.6 mph12.2 kmh 29.75 in1007.5 mb 0.00 in0.0 mm 0.00 in0.0 mm 0.00 in0.0 mm
04:00 AM 42.4°F5.8°C 42.4°F5.8°C 100% 5.8 mph WSW9.3 kmh WSW 7.6 mph12.2 kmh 29.75 in1007.5 mb 0.00 in0.0 mm 0.00 in0.0 mm 0.00 in0.0 mm
03:50 AM 42.6°F5.9°C 42.6°F5.9°C 100% 4.5 mph WSW7.2 kmh WSW 7.6 mph12.2 kmh 29.74 in1007.1 mb 0.00 in0.0 mm 0.00 in0.0 mm 0.00 in0.0 mm
03:40 AM 42.6°F5.9°C 42.6°F5.9°C 100% 4.0 mph WSW6.4 kmh WSW 4.9 mph7.9 kmh 29.74 in1007.1 mb 0.00 in0.0 mm 0.00 in0.0 mm 0.00 in0.0 mm
03:30 AM 42.8°F6.0°C 42.8°F6.0°C 100% 5.6 mph SSW9.0 kmh SSW 6.6 mph10.6 kmh 29.74 in1007.1 mb 0.00 in0.0 mm 0.00 in0.0 mm 0.00 in0.0 mm
03:20 AM 42.8°F6.0°C 42.8°F6.0°C 100% 3.6 mph SW5.8 kmh SW 4.9 mph7.9 kmh 29.75 in1007.5 mb 0.00 in0.0 mm 0.00 in0.0 mm 0.00 in0.0 mm
03:10 AM 42.6°F5.9°C 42.6°F5.9°C 100% 3.7 mph SW6.0 kmh SW 4.9 mph7.9 kmh 29.74 in1007.1 mb 0.00 in0.0 mm 0.00 in0.0 mm 0.00 in0.0 mm
03:00 AM 42.8°F6.0°C 42.8°F6.0°C 100% 3.7 mph W6.0 kmh W 4.2 mph6.8 kmh 29.74 in1007.1 mb 0.00 in0.0 mm 0.00 in0.0 mm 0.00 in0.0 mm
02:50 AM 43.2°F6.2°C 43.2°F6.2°C 100% 3.9 mph WSW6.3 kmh WSW 5.9 mph9.5 kmh 29.74 in1007.1 mb 0.00 in0.0 mm 0.00 in0.0 mm 0.00 in0.0 mm
02:40 AM 43.3°F6.3°C 43.3°F6.3°C 100% 4.6 mph SW7.4 kmh SW 5.9 mph9.5 kmh 29.74 in1007.1 mb 0.00 in0.0 mm 0.00 in0.0 mm 0.00 in0.0 mm
02:30 AM 43.5°F6.4°C 43.5°F6.4°C 100% 4.6 mph S7.4 kmh S 6.6 mph10.6 kmh 29.74 in1007.1 mb 0.00 in0.0 mm 0.00 in0.0 mm 0.00 in0.0 mm
02:20 AM 43.9°F6.6°C 43.9°F6.6°C 100% 3.9 mph S6.3 kmh S 4.9 mph7.9 kmh 29.73 in1006.8 mb 0.00 in0.0 mm 0.00 in0.0 mm 0.00 in0.0 mm
02:10 AM 44.2°F6.8°C 44.2°F6.8°C 100% 3.8 mph WSW6.1 kmh WSW 4.9 mph7.9 kmh 29.73 in1006.8 mb 0.00 in0.0 mm 0.00 in0.0 mm 0.00 in0.0 mm
02:00 AM 44.6°F7.0°C 44.6°F7.0°C 100% 3.3 mph SSW5.3 kmh SSW 4.9 mph7.9 kmh 29.73 in1006.8 mb 0.00 in0.0 mm 0.00 in0.0 mm 0.00 in0.0 mm
01:50 AM 44.8°F7.1°C 44.8°F7.1°C 100% 3.9 mph SW6.3 kmh SW 4.9 mph7.9 kmh 29.73 in1006.8 mb 0.00 in0.0 mm 0.00 in0.0 mm 0.00 in0.0 mm
01:40 AM 45.0°F7.2°C 45.0°F7.2°C 100% 3.0 mph SSW4.8 kmh SSW 4.9 mph7.9 kmh 29.72 in1006.4 mb 0.00 in0.0 mm 0.00 in0.0 mm 0.00 in0.0 mm
01:30 AM 45.1°F7.3°C 45.1°F7.3°C 100% 2.9 mph SSW4.7 kmh SSW 4.2 mph6.8 kmh 29.72 in1006.4 mb 0.00 in0.0 mm 0.00 in0.0 mm 0.00 in0.0 mm
01:20 AM 45.3°F7.4°C 45.3°F7.4°C 100% 2.9 mph SSW4.7 kmh SSW 4.9 mph7.9 kmh 29.71 in1006.1 mb 0.00 in0.0 mm 0.00 in0.0 mm 0.00 in0.0 mm
01:10 AM 45.3°F7.4°C 45.3°F7.4°C 100% 2.9 mph SE4.7 kmh SE 4.2 mph6.8 kmh 29.72 in1006.4 mb 0.00 in0.0 mm 0.00 in0.0 mm 0.00 in0.0 mm
01:00 AM 45.5°F7.5°C 45.5°F7.5°C 100% 4.2 mph SSW6.8 kmh SSW 5.9 mph9.5 kmh 29.72 in1006.4 mb 0.00 in0.0 mm 0.00 in0.0 mm 0.00 in0.0 mm
12:50 AM 45.7°F7.6°C 45.7°F7.6°C 100% 4.0 mph S6.4 kmh S 7.6 mph12.2 kmh 29.72 in1006.4 mb 0.00 in0.0 mm 0.00 in0.0 mm 0.00 in0.0 mm
12:40 AM 45.9°F7.7°C 45.9°F7.7°C 100% 5.0 mph S8.0 kmh S 6.6 mph10.6 kmh 29.72 in1006.4 mb 0.00 in0.0 mm 0.00 in0.0 mm 0.00 in0.0 mm
12:30 AM 46.0°F7.8°C 46.0°F7.8°C 100% 3.8 mph SW6.1 kmh SW 6.6 mph10.6 kmh 29.71 in1006.1 mb 0.00 in0.0 mm 0.00 in0.0 mm 0.00 in0.0 mm
12:20 AM 46.2°F7.9°C 46.2°F7.9°C 100% 3.9 mph SW6.3 kmh SW 6.6 mph10.6 kmh 29.70 in1005.8 mb 0.00 in0.0 mm 0.00 in0.0 mm 0.00 in0.0 mm
12:10 AM 46.2°F7.9°C 46.2°F7.9°C 100% 3.9 mph S6.3 kmh S 4.9 mph7.9 kmh 29.70 in1005.8 mb 0.00 in0.0 mm 0.00 in0.0 mm 0.00 in0.0 mm
12:00 AM 46.4°F8.0°C 46.4°F8.0°C 100% 3.5 mph SSE5.6 kmh SSE 4.2 mph6.8 kmh 29.70 in1005.8 mb 0.00 in0.0 mm 0.00 in0.0 mm 0.00 in0.0 mm